Aktuální počasí v Česku a ve světě - METAR

Seznam meteostanic umístěných nejčasteji na letišti v ČR a ve světě

Vyhledat místa podle abecedy:
A B C D E F G H I J K L M N O P Q R S T U V W X Y Z

Filtrovat:

ID stanice:
a/nebo
Název místa (fulltext):
 
Místo (ID)Naposledy načteno 
Rarotonga I (NCRG) 05.03.2021 09:00 UTC Zobrazit METAR
NCRG 050900Z AUTO 13001KT 9999 SCT019/// BKN038/// 25/24 Q1012
Reykjavik (BIRK) 05.03.2021 09:00 UTC Zobrazit METAR
BIRK 050900Z 12011KT 9999 FEW017 OVC035 04/01 Q1025
Riga (EVRA) 05.03.2021 08:50 UTC Zobrazit METAR
EVRA 050850Z 30006KT 250V340 9999 BKN041 M00/M09 Q1016 R36/190095 NOSIG
Rimini (LIPR) 05.03.2021 08:50 UTC Zobrazit METAR
LIPR 050850Z 21006KT 9999 SCT070 13/05 Q1017
Riyadh (OERY) 05.03.2021 09:00 UTC Zobrazit METAR
OERY 050900Z 34011KT 9000 NSC 20/M01 Q1022 NOSIG
Road Town (TUPJ) 05.03.2021 01:00 UTC Zobrazit METAR
TUPJ 050100Z 14006KT 10SM SCT020 25/21 A2999 RMK Q1015 VIS16KM
Rodos (LGRP) 05.03.2021 08:50 UTC Zobrazit METAR
LGRP 050850Z 25007KT CAVOK 17/08 Q1021 NOSIG
Rome (LIRF) 05.03.2021 08:50 UTC Zobrazit METAR
LIRF 050850Z 11006KT 9999 FEW050 13/05 Q1018 NOSIG
Roseau (TDCF) 04.03.2021 20:00 UTC Zobrazit METAR
TDCF 042000Z 09007KT 9999 FEW022 29/21 Q1012
Rotterdam (EHRD) 05.03.2021 07:55 UTC Zobrazit METAR
EHRD 050755Z AUTO 03005KT 350V070 9999 FEW038 02/M00 Q1029 NOSIG
Rzeszow (EPRZ) 05.03.2021 09:00 UTC Zobrazit METAR
EPRZ 050900Z 34009KT 5000 -SN BR OVC005 01/00 Q1015
Reklama

Reklama


Počasí na Váš email

Emaily jsou bez reklamy a bez spamu



Odhlásit newsletter



Další české internetové stránky (nejen) o počasí najdete v katalogu TOPlist - weby o počasí nebo vyhledejte na internetu, co jste tu na 🌞 Slunečnu ⛅ zatím nenašli:
⭐ Přidat Slunečno.cz do oblíbených | 🏠 Nastavit Slunečno.cz jako HOMEPAGE

⬆️ Posunout stránku nahoru ⬆️
Reklama